Time;durP1;ratioP1;P1;durP2;ratioP2;P2;SDS_P1;SDS_P2;PMS_P1;PMS_P2;Temp;Humidity;BMP_temperature;BMP_pressure;BME280_temperature;BME280_humidity;BME280_pressure;Samples;Min_cycle;Max_cycle;Signal;HPM_P1;HPM_P2
2022/04/03 00:01:07;;;;;;;2.97;1.67;;;;;;;-0.35;53.00;101510.16;5053854;28;20080;-71
2022/04/03 00:03:34;;;;;;;4.57;1.85;;;;;;;-0.60;54.05;101514.34;5054231;28;20076;-71
2022/04/03 00:06:01;;;;;;;4.47;1.80;;;;;;;-1.11;54.96;101532.81;5054399;28;20500;-71
2022/04/03 00:08:28;;;;;;;5.10;1.75;;;;;;;-1.27;55.63;101527.53;5057764;28;20122;-71
2022/04/03 00:10:55;;;;;;;5.95;1.83;;;;;;;-0.88;54.51;101517.56;5055561;28;20098;-71
2022/04/03 00:13:21;;;;;;;5.15;1.92;;;;;;;-0.77;54.24;101510.78;5056479;28;20522;-71
2022/04/03 00:15:47;;;;;;;3.90;1.73;;;;;;;-0.79;54.20;101519.34;5053132;28;20496;-71
2022/04/03 00:18:15;;;;;;;5.10;1.98;;;;;;;-0.66;53.84;101519.44;5056557;28;20084;-71
2022/04/03 00:20:42;;;;;;;5.10;1.77;;;;;;;-0.87;54.05;101514.16;5054503;28;20172;-71
2022/04/03 00:23:09;;;;;;;5.28;1.50;;;;;;;-0.91;54.03;101509.81;5057114;28;20052;-71
2022/04/03 00:25:37;;;;;;;8.93;1.90;;;;;;;-1.15;54.34;101525.94;5054131;28;20122;-71
2022/04/03 00:28:04;;;;;;;7.40;2.03;;;;;;;-0.98;54.24;101523.50;5058002;28;20071;-71
2022/04/03 00:30:30;;;;;;;5.40;2.25;;;;;;;-0.97;54.55;101525.22;5059093;28;20064;-71
2022/04/03 00:32:56;;;;;;;3.65;1.98;;;;;;;-0.91;54.26;101520.13;5060157;28;20080;-71
2022/04/03 00:35:24;;;;;;;8.10;2.10;;;;;;;-0.81;54.35;101511.59;5056307;28;20207;-70
2022/04/03 00:37:51;;;;;;;4.25;2.08;;;;;;;-0.89;54.31;101507.28;5055769;28;20146;-70
2022/04/03 00:40:20;;;;;;;4.28;2.00;;;;;;;-0.81;54.27;101505.63;5058829;28;20496;-70
2022/04/03 00:42:46;;;;;;;9.60;2.17;;;;;;;-0.72;53.84;101508.22;5054623;28;20060;-70
2022/04/03 00:45:13;;;;;;;7.68;2.30;;;;;;;-0.68;53.86;101502.25;5056180;28;20080;-70
2022/04/03 00:47:40;;;;;;;5.03;2.40;;;;;;;-0.71;53.90;101499.66;5055250;28;20753;-70
2022/04/03 00:50:07;;;;;;;5.35;2.30;;;;;;;-0.70;53.45;101496.25;5057683;28;20051;-71
2022/04/03 00:52:35;;;;;;;3.22;1.83;;;;;;;-0.68;53.21;101505.69;5059085;28;20473;-71
2022/04/03 00:55:01;;;;;;;5.43;2.08;;;;;;;-0.71;53.17;101497.09;5054135;28;20509;-71
2022/04/03 00:57:27;;;;;;;5.80;2.00;;;;;;;-0.69;53.18;101500.53;5056171;28;20072;-70
2022/04/03 00:59:55;;;;;;;6.22;2.30;;;;;;;-0.82;53.46;101499.59;5053442;28;20114;-70
2022/04/03 01:02:22;;;;;;;7.13;2.00;;;;;;;-0.91;53.42;101494.38;5058802;28;20048;-70
2022/04/03 01:04:48;;;;;;;4.05;1.73;;;;;;;-0.90;52.93;101496.09;5055742;28;20073;-70
2022/04/03 01:07:14;;;;;;;6.03;2.25;;;;;;;-0.98;53.01;101498.63;5054266;28;20142;-70
2022/04/03 01:09:42;;;;;;;3.30;1.85;;;;;;;-0.84;52.75;101496.13;5054552;28;20059;-70
2022/04/03 01:12:10;;;;;;;3.75;1.75;;;;;;;-0.86;52.58;101500.44;5059356;28;20161;-70
2022/04/03 01:14:38;;;;;;;5.68;2.13;;;;;;;-0.98;52.89;101501.19;5053205;28;20500;-70
2022/04/03 01:17:05;;;;;;;4.38;2.10;;;;;;;-0.96;52.81;101505.50;5055884;28;20113;-70
2022/04/03 01:19:31;;;;;;;3.10;1.80;;;;;;;-1.08;53.61;101514.00;5059606;28;20076;-70
2022/04/03 01:21:58;;;;;;;5.60;2.22;;;;;;;-1.03;53.03;101504.56;5058280;28;20076;-70
2022/04/03 01:24:26;;;;;;;5.43;2.42;;;;;;;-1.26;53.66;101509.56;5062797;28;20102;-70
2022/04/03 01:26:54;;;;;;;4.18;2.22;;;;;;;-1.62;54.89;101509.19;5063040;28;20048;-70
2022/04/03 01:29:21;;;;;;;5.57;2.20;;;;;;;-1.58;54.72;101504.09;5059185;28;20137;-70
2022/04/03 01:31:48;;;;;;;3.95;1.85;;;;;;;-1.57;54.70;101517.81;5057758;28;20132;-71
2022/04/03 01:34:16;;;;;;;6.82;1.92;;;;;;;-1.72;55.08;101508.25;5057915;28;20049;-71
2022/04/03 01:36:43;;;;;;;3.08;1.67;;;;;;;-1.80;55.00;101517.59;5059646;28;20048;-71
2022/04/03 01:39:10;;;;;;;4.50;2.15;;;;;;;-1.98;55.30;101510.53;5057343;28;21436;-71
2022/04/03 01:41:37;;;;;;;3.17;1.58;;;;;;;-2.17;56.17;101508.59;5062437;28;20484;-71
2022/04/03 01:44:06;;;;;;;7.40;2.38;;;;;;;-2.23;56.67;101515.38;5057368;28;20053;-71
2022/04/03 01:46:32;;;;;;;4.65;2.08;;;;;;;-2.48;57.65;101507.31;5061730;28;20136;-71
2022/04/03 01:48:59;;;;;;;3.55;1.80;;;;;;;-2.67;58.25;101510.50;5057676;28;20069;-71
2022/04/03 01:51:25;;;;;;;7.32;1.90;;;;;;;-2.68;58.72;101503.63;5060137;28;20072;-71
2022/04/03 01:53:52;;;;;;;7.05;1.90;;;;;;;-2.66;58.67;101512.22;5059362;28;20217;-71
2022/04/03 01:56:18;;;;;;;3.10;1.52;;;;;;;-2.80;58.74;101507.72;5061770;28;20055;-71
2022/04/03 01:58:45;;;;;;;3.45;1.77;;;;;;;-2.80;59.00;101510.28;5057640;28;20084;-70
2022/04/03 02:01:12;;;;;;;5.50;1.80;;;;;;;-2.77;59.08;101508.63;5055210;28;20072;-72
2022/04/03 02:03:39;;;;;;;3.85;1.77;;;;;;;-2.77;58.95;101500.91;5055714;28;20080;-72
2022/04/03 02:06:05;;;;;;;2.75;1.50;;;;;;;-2.74;58.90;101501.00;5058908;28;20080;-73
2022/04/03 02:08:32;;;;;;;4.68;1.92;;;;;;;-2.66;58.63;101495.97;5058187;28;20049;-72
2022/04/03 02:10:58;;;;;;;8.77;2.47;;;;;;;-2.71;58.00;101500.16;5052560;28;20125;-72
2022/04/03 02:13:24;;;;;;;3.42;1.52;;;;;;;-2.56;57.63;101501.25;5059427;28;20054;-72
2022/04/03 02:15:51;;;;;;;5.22;2.30;;;;;;;-2.52;57.04;101491.88;5061577;28;20072;-72
2022/04/03 02:18:18;;;;;;;5.20;2.20;;;;;;;-2.47;56.54;101506.50;5056952;28;20076;-74
2022/04/03 02:20:45;;;;;;;4.40;1.88;;;;;;;-2.63;57.65;101493.44;5054775;28;20092;-73
2022/04/03 02:23:12;;;;;;;4.88;2.05;;;;;;;-2.68;57.77;101503.63;5060393;28;20122;-73
2022/04/03 02:25:39;;;;;;;5.60;1.52;;;;;;;-2.76;57.62;101504.34;5057616;28;20057;-73
2022/04/03 02:28:05;;;;;;;5.55;1.80;;;;;;;-2.88;57.79;101506.75;5059021;28;20044;-74
2022/04/03 02:30:32;;;;;;;4.90;1.38;;;;;;;-3.03;58.25;101502.25;5057038;28;20159;-74
2022/04/03 02:32:58;;;;;;;6.35;1.80;;;;;;;-2.92;58.29;101503.28;5055789;28;20072;-72
2022/04/03 02:35:26;;;;;;;4.30;2.45;;;;;;;-3.14;58.51;101504.63;5056015;28;20076;-72
2022/04/03 02:37:53;;;;;;;4.60;1.67;;;;;;;-3.24;59.35;101502.78;5058698;28;20080;-73
2022/04/03 02:40:19;;;;;;;5.53;1.80;;;;;;;-3.31;59.83;101511.19;5059776;28;20072;-73
2022/04/03 02:42:46;;;;;;;5.70;2.20;;;;;;;-3.46;60.18;101513.50;5061271;28;20044;-73
2022/04/03 02:45:13;;;;;;;4.68;1.80;;;;;;;-3.67;61.43;101495.19;5060196;28;20048;-73
2022/04/03 02:47:40;;;;;;;2.33;1.35;;;;;;;-3.87;63.28;101504.19;5060389;28;20124;-73
2022/04/03 02:50:08;;;;;;;2.80;1.45;;;;;;;-3.54;62.54;101504.81;5056715;28;20091;-73
2022/04/03 02:52:35;;;;;;;3.17;1.70;;;;;;;-3.17;61.01;101504.59;5059294;28;20047;-73
2022/04/03 02:55:04;;;;;;;6.85;1.92;;;;;;;-2.92;58.57;101507.56;5055027;28;20059;-73
2022/04/03 02:57:30;;;;;;;5.72;1.88;;;;;;;-3.17;58.68;101496.91;5055249;28;20048;-73
2022/04/03 02:59:57;;;;;;;3.58;1.80;;;;;;;-2.98;58.51;101500.59;5057840;28;20127;-73
2022/04/03 03:02:23;;;;;;;2.92;1.58;;;;;;;-2.81;58.07;101508.59;5059724;28;20492;-73
2022/04/03 03:04:49;;;;;;;2.90;1.58;;;;;;;-2.73;57.98;101510.41;5058277;28;20057;-73
2022/04/03 03:07:16;;;;;;;5.47;1.50;;;;;;;-3.35;58.67;101503.41;5057481;28;20141;-73
2022/04/03 03:09:44;;;;;;;4.00;1.90;;;;;;;-3.27;60.51;101506.97;5057564;28;20459;-73
2022/04/03 03:12:11;;;;;;;4.65;1.55;;;;;;;-3.01;59.67;101505.69;5059605;28;20939;-73
2022/04/03 03:14:37;;;;;;;3.38;1.80;;;;;;;-3.15;57.60;101495.25;5060794;28;20080;-73
2022/04/03 03:17:03;;;;;;;5.13;1.67;;;;;;;-2.87;57.35;101504.19;5058379;28;20513;-73
2022/04/03 03:19:30;;;;;;;3.22;1.33;;;;;;;-3.23;57.72;101504.50;5058733;28;20474;-73
2022/04/03 03:21:56;;;;;;;3.88;1.65;;;;;;;-3.40;58.54;101498.25;5060671;28;20080;-73
2022/04/03 03:24:22;;;;;;;3.97;1.58;;;;;;;-3.26;58.87;101504.47;5059564;28;20468;-73
2022/04/03 03:26:50;;;;;;;4.00;1.70;;;;;;;-3.16;58.56;101511.47;5054499;28;20768;-73
2022/04/03 03:29:17;;;;;;;2.95;1.58;;;;;;;-3.42;58.82;101506.72;5054367;28;20056;-72
2022/04/03 03:31:43;;;;;;;4.78;2.00;;;;;;;-3.41;59.02;101501.63;5057705;28;20048;-72
2022/04/03 03:34:09;;;;;;;3.75;1.50;;;;;;;-3.45;58.84;101504.97;5059018;28;20114;-72
2022/04/03 03:36:36;;;;;;;3.10;1.50;;;;;;;-3.36;58.48;101507.69;5054917;28;20052;-73
2022/04/03 03:39:03;;;;;;;2.38;1.17;;;;;;;-3.30;58.55;101505.25;5058529;28;20504;-73
2022/04/03 03:41:29;;;;;;;4.88;1.67;;;;;;;-3.17;57.58;101509.72;5058015;28;20055;-73
2022/04/03 03:43:57;;;;;;;3.42;1.50;;;;;;;-3.17;57.82;101496.91;5060351;28;20130;-73
2022/04/03 03:46:23;;;;;;;3.75;1.27;;;;;;;-3.26;58.08;101509.59;5059725;28;20083;-73
2022/04/03 03:48:49;;;;;;;3.22;1.25;;;;;;;-3.24;58.53;101500.19;5056602;28;20056;-72
2022/04/03 03:51:16;;;;;;;2.45;1.20;;;;;;;-2.79;57.76;101497.50;5060315;28;20437;-72
2022/04/03 03:53:42;;;;;;;3.15;1.88;;;;;;;-2.85;58.06;101501.66;5060138;28;20072;-73
2022/04/03 03:56:08;;;;;;;2.67;1.38;;;;;;;-2.86;57.99;101499.94;5053880;28;20048;-72
2022/04/03 03:58:35;;;;;;;4.55;1.50;;;;;;;-2.86;58.34;101499.94;5059672;28;20084;-73
2022/04/03 04:01:03;;;;;;;8.68;1.70;;;;;;;-2.78;58.34;101501.78;5056445;28;20056;-72
2022/04/03 04:03:29;;;;;;;3.00;1.42;;;;;;;-2.75;58.46;101498.38;5059127;28;20055;-72
2022/04/03 04:05:55;;;;;;;4.28;1.58;;;;;;;-2.58;58.05;101502.03;5058217;28;20490;-72
2022/04/03 04:08:22;;;;;;;2.55;1.55;;;;;;;-2.68;58.61;101500.19;5058565;28;20076;-72
2022/04/03 04:10:48;;;;;;;4.70;2.08;;;;;;;-2.74;58.91;101501.00;5054617;28;20686;-72
2022/04/03 04:13:14;;;;;;;4.57;1.70;;;;;;;-2.70;59.19;101507.91;5057848;28;20126;-72
2022/04/03 04:15:41;;;;;;;4.72;1.98;;;;;;;-2.77;59.98;101500.91;5055503;28;20133;-72
2022/04/03 04:18:09;;;;;;;2.38;1.30;;;;;;;-2.75;60.70;101511.22;5055717;28;20557;-72
2022/04/03 04:20:36;;;;;;;4.85;1.75;;;;;;;-2.76;61.23;101499.22;5057528;28;20500;-73
2022/04/03 04:23:03;;;;;;;3.70;1.65;;;;;;;-2.31;59.55;101505.00;5056874;28;20144;-72
2022/04/03 04:25:31;;;;;;;5.80;2.10;;;;;;;-2.27;59.37;101509.31;5057887;28;20059;-73
2022/04/03 04:27:58;;;;;;;2.70;1.50;;;;;;;-2.49;60.37;101508.19;5055915;28;20420;-73
2022/04/03 04:30:25;;;;;;;4.15;2.38;;;;;;;-2.37;60.27;101514.34;5056740;28;20459;-73
2022/04/03 04:32:51;;;;;;;7.80;1.65;;;;;;;-2.40;60.81;101517.69;5058819;28;20141;-73
2022/04/03 04:35:19;;;;;;;3.60;1.60;;;;;;;-2.78;62.14;101526.59;5054891;28;20106;-73
2022/04/03 04:37:45;;;;;;;3.67;1.80;;;;;;;-2.93;62.83;101528.91;5053697;28;20049;-74
2022/04/03 04:40:13;;;;;;;4.38;1.77;;;;;;;-3.04;62.87;101536.44;5053291;28;20075;-74
2022/04/03 04:42:40;;;;;;;4.68;2.03;;;;;;;-3.03;62.94;101523.63;5057164;28;20574;-73
2022/04/03 04:45:09;;;;;;;9.93;2.35;;;;;;;-2.88;62.98;101527.28;5055034;28;20045;-73
2022/04/03 04:47:35;;;;;;;2.90;1.52;;;;;;;-2.60;61.17;101527.72;5056072;28;20090;-73
2022/04/03 04:50:06;;;;;;;6.18;1.80;;;;;;;-2.86;61.61;101529.03;5060108;28;20062;-73
2022/04/03 04:52:33;;;;;;;3.30;1.50;;;;;;;-2.91;61.72;101527.22;5070071;28;20052;-73
2022/04/03 04:55:00;;;;;;;3.75;1.77;;;;;;;-2.31;59.48;101522.09;5069040;28;20037;-72
2022/04/03 04:57:26;;;;;;;6.57;2.10;;;;;;;-2.45;59.76;101527.06;5071134;28;20459;-72
2022/04/03 04:59:53;;;;;;;6.57;1.92;;;;;;;-2.53;59.88;101531.22;5069323;28;20068;-72
2022/04/03 05:02:19;;;;;;;6.55;2.25;;;;;;;-2.86;60.74;101526.47;5070001;28;20097;-73
2022/04/03 05:04:45;;;;;;;4.50;1.88;;;;;;;-2.91;61.15;101528.09;5068191;28;20513;-72
2022/04/03 05:07:12;;;;;;;6.32;2.00;;;;;;;-3.19;62.37;101534.50;5070740;28;20067;-72
2022/04/03 05:09:40;;;;;;;4.78;2.22;;;;;;;-3.11;62.48;101532.94;5069808;28;20041;-71
2022/04/03 05:12:08;;;;;;;6.63;2.40;;;;;;;-3.10;62.61;101534.63;5069764;28;20094;-71
2022/04/03 05:14:35;;;;;;;7.28;2.10;;;;;;;-2.48;60.17;101535.56;5070197;28;20456;-72
2022/04/03 05:17:01;;;;;;;6.40;2.80;;;;;;;-2.58;60.18;101544.00;5070934;28;20078;-72
2022/04/03 05:19:27;;;;;;;14.15;6.10;;;;;;;-3.14;62.60;101545.69;5068985;28;20066;-72
2022/04/03 05:21:54;;;;;;;13.13;5.78;;;;;;;-3.17;63.53;101540.50;5070918;28;20098;-72
2022/04/03 05:24:20;;;;;;;13.52;6.82;;;;;;;-2.85;62.29;101542.72;5070893;28;20047;-72
2022/04/03 05:26:48;;;;;;;10.02;5.20;;;;;;;-2.68;62.07;101542.13;5069130;28;20106;-72
2022/04/03 05:29:14;;;;;;;8.65;4.45;;;;;;;-2.32;61.45;101531.50;5068763;28;20041;-72
2022/04/03 05:31:41;;;;;;;6.97;3.78;;;;;;;-2.17;61.35;101541.13;5069663;28;20098;-72
2022/04/03 05:34:08;;;;;;;8.73;3.65;;;;;;;-1.79;60.14;101541.59;5070314;28;20075;-71
2022/04/03 05:36:34;;;;;;;5.32;2.80;;;;;;;-1.34;58.73;101534.34;5069799;28;20090;-71
2022/04/03 05:39:04;;;;;;;7.80;2.90;;;;;;;-1.27;58.31;101541.28;5068520;28;20114;-71
2022/04/03 05:41:30;;;;;;;6.97;2.83;;;;;;;-1.06;58.33;101546.59;5070606;28;20047;-72
2022/04/03 05:43:58;;;;;;;5.03;2.63;;;;;;;-0.99;58.40;101532.94;5070289;28;20044;-71
2022/04/03 05:46:24;;;;;;;4.97;2.58;;;;;;;-0.48;56.96;101536.69;5070161;28;20045;-72
2022/04/03 05:48:51;;;;;;;4.70;2.58;;;;;;;-0.40;56.89;101534.16;5069179;28;20045;-72
2022/04/03 05:51:17;;;;;;;5.10;2.90;;;;;;;-0.74;57.71;101539.13;5079677;28;20048;-71
2022/04/03 05:53:44;;;;;;;7.13;2.75;;;;;;;-0.82;57.80;101553.66;5070254;28;20093;-71
2022/04/03 05:56:10;;;;;;;4.45;2.20;;;;;;;-0.61;57.81;101542.66;5069779;28;20040;-71
2022/04/03 05:58:36;;;;;;;4.88;2.30;;;;;;;-0.15;56.72;101552.34;5070011;28;20048;-71
2022/04/03 06:01:04;;;;;;;4.50;2.25;;;;;;;-0.06;56.01;101551.53;5069912;28;20114;-71
2022/04/03 06:03:31;;;;;;;6.60;2.90;;;;;;;0.49;54.85;101544.84;5068603;28;20570;-72
2022/04/03 06:05:57;;;;;;;5.65;2.97;;;;;;;0.49;55.22;101548.28;5069394;28;20049;-71
2022/04/03 06:08:23;;;;;;;6.93;3.45;;;;;;;1.10;53.78;101550.94;5070080;28;20486;-71
2022/04/03 06:10:50;;;;;;;6.38;2.90;;;;;;;0.84;53.75;101557.81;5069142;28;20381;-71
2022/04/03 06:13:16;;;;;;;5.47;3.13;;;;;;;0.88;54.65;101551.81;5069646;28;20101;-71
2022/04/03 06:15:45;;;;;;;5.82;3.30;;;;;;;0.94;53.91;101557.81;5069803;28;20052;-71
2022/04/03 06:18:14;;;;;;;7.10;3.40;;;;;;;2.81;50.28;101552.03;5069984;28;20242;-71
2022/04/03 06:20:42;;;;;;;5.85;3.20;;;;;;;2.40;50.32;101552.31;5068578;28;20072;-71
2022/04/03 06:23:12;;;;;;;5.78;3.20;;;;;;;2.63;51.33;101547.84;5069652;28;20072;-71
2022/04/03 06:25:38;;;;;;;6.60;3.45;;;;;;;4.27;47.18;101538.44;5068690;28;20045;-71
2022/04/03 06:28:05;;;;;;;7.47;3.88;;;;;;;5.04;45.00;101541.63;5069867;28;20454;-71
2022/04/03 06:30:32;;;;;;;5.22;3.08;;;;;;;5.39;43.64;101526.31;5066709;28;20451;-71
2022/04/03 06:32:58;;;;;;;5.22;2.78;;;;;;;5.44;42.76;101529.66;5068686;28;20040;-71
2022/04/03 06:35:26;;;;;;;4.68;2.78;;;;;;;6.12;42.12;101530.97;5067738;28;20044;-72
2022/04/03 06:37:52;;;;;;;6.07;3.30;;;;;;;6.11;41.34;101528.38;5068755;28;20474;-72
2022/04/03 06:40:18;;;;;;;5.32;2.78;;;;;;;5.95;42.49;101529.63;5067299;28;20040;-72
2022/04/03 06:42:45;;;;;;;6.05;3.03;;;;;;;6.26;41.32;101535.88;5066574;28;20040;-72
2022/04/03 06:45:12;;;;;;;7.90;3.00;;;;;;;5.10;44.64;101539.78;5069640;28;20615;-72
2022/04/03 06:47:38;;;;;;;5.65;3.00;;;;;;;6.00;42.46;101531.22;5066408;28;20118;-72
2022/04/03 06:50:05;;;;;;;5.32;3.10;;;;;;;7.04;42.47;101530.59;5067508;28;20098;-73
2022/04/03 06:52:33;;;;;;;7.18;2.95;;;;;;;7.80;41.07;101513.78;5069024;28;20131;-72
2022/04/03 06:54:59;;;;;;;6.50;2.80;;;;;;;7.96;41.27;101518.56;5067499;28;20052;-72
2022/04/03 06:57:26;;;;;;;4.93;3.05;;;;;;;7.49;40.40;101523.34;5067828;28;20045;-72
2022/04/03 06:59:52;;;;;;;6.25;3.10;;;;;;;7.44;39.98;101530.44;5066990;28;20094;-72
2022/04/03 07:02:19;;;;;;;7.88;3.40;;;;;;;7.41;40.94;101527.91;5058689;28;20330;-73
2022/04/03 07:04:45;;;;;;;7.90;3.38;;;;;;;7.63;40.08;101528.19;5066812;28;20044;-73
2022/04/03 07:07:11;;;;;;;6.18;3.20;;;;;;;8.00;40.29;101521.06;5066666;28;20048;-72
2022/04/03 07:09:43;;;;;;;6.40;3.13;;;;;;;7.77;39.44;101526.06;5067643;28;20094;-73
2022/04/03 07:12:11;;;;;;;5.20;2.78;;;;;;;7.92;37.17;101519.56;5064349;28;20124;-72
2022/04/03 07:14:37;;;;;;;4.75;2.50;;;;;;;7.82;38.10;101522.44;5065325;28;20120;-73
2022/04/03 07:17:04;;;;;;;6.32;2.80;;;;;;;7.27;39.42;101522.19;5066601;28;20553;-72
2022/04/03 07:19:31;;;;;;;8.38;2.92;;;;;;;7.04;41.60;101524.53;5065202;28;20090;-72
2022/04/03 07:21:57;;;;;;;10.18;3.40;;;;;;;8.09;40.01;101519.94;5065700;28;20506;-72
2022/04/03 07:24:24;;;;;;;5.32;3.10;;;;;;;9.22;37.18;101515.50;5067767;28;20059;-72
2022/04/03 07:26:51;;;;;;;6.32;2.60;;;;;;;9.69;34.08;101504.25;5066468;28;20052;-72
2022/04/03 07:29:18;;;;;;;5.65;2.67;;;;;;;10.06;33.70;101514.22;5065118;28;20098;-71
2022/04/03 07:31:44;;;;;;;4.07;2.47;;;;;;;11.18;30.85;101509.78;5058880;28;20432;-71
2022/04/03 07:34:11;;;;;;;5.05;2.83;;;;;;;11.34;32.64;101509.13;5063792;28;20048;-71
2022/04/03 07:36:37;;;;;;;9.32;2.60;;;;;;;11.26;31.72;101511.22;5065532;28;20127;-71
2022/04/03 07:39:03;;;;;;;4.68;2.60;;;;;;;11.62;31.29;101507.88;5066909;28;20096;-72
2022/04/03 07:41:30;;;;;;;4.10;2.45;;;;;;;11.41;31.27;101514.06;5067030;28;20093;-72
2022/04/03 07:43:58;;;;;;;4.35;2.90;;;;;;;11.64;31.39;101508.66;5068060;28;20626;-72
2022/04/03 07:46:24;;;;;;;3.85;2.50;;;;;;;12.11;30.84;101510.97;5065888;28;20060;-72
2022/04/03 07:48:51;;;;;;;5.53;3.05;;;;;;;12.24;29.91;101521.75;5065425;28;20109;-72
2022/04/03 07:51:17;;;;;;;5.47;2.95;;;;;;;12.25;28.64;101512.97;5063758;28;20056;-72
2022/04/03 07:53:43;;;;;;;3.90;2.40;;;;;;;12.25;30.67;101503.31;5067767;28;20040;-72
2022/04/03 07:56:10;;;;;;;6.95;2.58;;;;;;;11.77;30.55;101509.00;5065922;28;20475;-72
2022/04/03 07:58:36;;;;;;;5.90;2.30;;;;;;;12.33;29.32;101519.56;5066818;28;20381;-72
2022/04/03 08:01:05;;;;;;;5.38;2.63;;;;;;;12.79;29.40;101512.97;5065068;28;20044;-72
2022/04/03 08:03:31;;;;;;;3.65;2.33;;;;;;;12.91;28.41;101516.78;5066314;28;20382;-72
2022/04/03 08:05:58;;;;;;;3.88;2.35;;;;;;;13.23;28.29;101515.25;5066740;28;20554;-72
2022/04/03 08:08:24;;;;;;;3.30;2.30;;;;;;;13.53;27.24;101501.34;5066654;28;20493;-72
2022/04/03 08:10:50;;;;;;;4.05;2.50;;;;;;;12.81;27.44;101507.63;5065961;28;20045;-72
2022/04/03 08:13:17;;;;;;;3.65;2.30;;;;;;;12.72;27.82;101508.06;5065370;28;20093;-72
2022/04/03 08:15:44;;;;;;;4.45;2.22;;;;;;;12.54;27.25;101502.78;5064988;28;20044;-72
2022/04/03 08:18:11;;;;;;;4.57;2.30;;;;;;;12.65;28.96;101502.25;5065808;28;20098;-72
2022/04/03 08:20:38;;;;;;;3.10;2.08;;;;;;;12.72;26.98;101508.94;5063884;28;20070;-72
2022/04/03 08:23:05;;;;;;;6.85;3.53;;;;;;;13.71;25.08;101501.31;5065783;28;20059;-72
2022/04/03 08:25:32;;;;;;;4.03;2.65;;;;;;;12.80;25.85;101498.88;5066011;28;20124;-72
2022/04/03 08:27:59;;;;;;;4.80;2.80;;;;;;;13.02;26.00;101503.94;5066679;28;20044;-72
2022/04/03 08:30:27;;;;;;;3.30;2.75;;;;;;;13.57;27.94;101505.53;5066034;28;20511;-72
2022/04/03 08:32:55;;;;;;;4.47;2.83;;;;;;;13.65;27.27;101511.25;5065178;28;20466;-72
2022/04/03 08:35:24;;;;;;;3.08;2.10;;;;;;;13.06;23.73;101509.00;5061576;28;20049;-72
2022/04/03 08:37:51;;;;;;;4.38;2.30;;;;;;;12.35;27.30;101507.19;5065654;28;20416;-71
2022/04/03 08:40:19;;;;;;;3.90;2.72;;;;;;;13.48;25.95;101505.16;5065441;28;20040;-72
2022/04/03 08:42:46;;;;;;;4.68;2.90;;;;;;;13.98;25.20;101515.66;5067077;28;20561;-72
2022/04/03 08:45:12;;;;;;;4.78;2.97;;;;;;;13.37;25.54;101504.84;5067025;28;20492;-72
2022/04/03 08:47:44;;;;;;;4.97;2.15;;;;;;;13.82;26.44;101501.63;5067224;28;20070;-74
2022/04/03 08:50:12;;;;;;;4.90;2.00;;;;;;;12.35;26.97;101522.97;5064360;28;20041;-73
2022/04/03 08:52:44;;;;;;;4.38;2.90;;;;;;;11.28;26.41;101504.97;5063536;28;20044;-72
2022/04/03 08:55:11;;;;;;;3.38;1.88;;;;;;;10.56;27.92;101525.44;5066188;28;20041;-72
2022/04/03 08:57:37;;;;;;;6.80;1.80;;;;;;;10.48;27.44;101519.66;5066501;28;20411;-71
2022/04/03 09:00:05;;;;;;;3.10;1.90;;;;;;;10.93;28.12;101511.72;5066560;28;20508;-71
2022/04/03 09:02:31;;;;;;;2.67;1.90;;;;;;;10.44;29.26;101518.06;5066814;28;20036;-72
2022/04/03 09:04:57;;;;;;;3.97;2.15;;;;;;;10.34;29.36;101503.59;5066700;28;20454;-72
2022/04/03 09:07:24;;;;;;;4.22;2.35;;;;;;;11.06;29.62;101499.78;5065718;28;20454;-72
2022/04/03 09:09:57;;;;;;;3.33;2.40;;;;;;;11.70;28.18;101503.16;5065727;28;20041;-72
2022/04/03 09:12:23;;;;;;;3.40;1.90;;;;;;;11.84;27.24;101494.66;5066154;28;20530;-72
2022/04/03 09:14:51;;;;;;;3.05;2.25;;;;;;;12.40;26.39;101493.84;5063035;28;20049;-72
2022/04/03 09:17:32;;;;;;;5.57;2.20;;;;;;;12.95;27.19;101492.03;5065175;28;20087;-72
2022/04/03 09:20:01;;;;;;;4.35;2.13;;;;;;;11.46;26.49;101498.94;5061636;28;20079;-72
2022/04/03 09:22:28;;;;;;;4.10;2.60;;;;;;;11.76;28.73;101503.81;5065005;28;20060;-72
2022/04/03 09:24:56;;;;;;;2.92;1.90;;;;;;;12.33;29.34;101502.94;5066477;28;20063;-72
2022/04/03 09:27:24;;;;;;;3.25;2.00;;;;;;;12.56;27.56;101495.66;5066330;28;20074;-72
2022/04/03 09:30:02;;;;;;;2.90;2.10;;;;;;;12.38;27.87;101491.25;5066025;28;20484;-71
2022/04/03 09:32:28;;;;;;;5.05;2.25;;;;;;;11.27;28.22;101498.03;5065305;28;20415;-71
2022/04/03 09:34:56;;;;;;;3.67;2.22;;;;;;;10.47;28.69;101490.84;5064505;28;20457;-70
2022/04/03 09:37:23;;;;;;;3.75;2.10;;;;;;;10.13;30.12;101493.88;5064475;28;20049;-71
2022/04/03 09:39:49;;;;;;;3.65;2.40;;;;;;;10.46;30.96;101499.63;5062059;28;20540;-72
2022/04/03 09:42:17;;;;;;;3.95;2.40;;;;;;;11.57;29.94;101496.69;5069547;28;20097;-72
2022/04/03 09:44:45;;;;;;;3.97;2.42;;;;;;;12.29;28.07;101493.50;5069973;28;20118;-72
2022/04/03 09:47:17;;;;;;;4.88;2.78;;;;;;;11.79;28.01;101490.56;5070382;28;20532;-71
2022/04/03 09:49:45;;;;;;;3.03;1.90;;;;;;;11.33;27.74;101483.78;5067524;28;20045;-71
2022/04/03 09:52:12;;;;;;;6.00;2.00;;;;;;;11.00;28.10;101488.69;5067851;28;20075;-71
2022/04/03 09:54:39;;;;;;;3.80;2.42;;;;;;;11.49;29.38;101477.78;5069199;28;20045;-68
2022/04/03 09:57:24;;;;;;;5.85;2.30;;;;;;;11.46;27.96;101467.44;5069419;28;20043;-68
2022/04/03 09:59:51;;;;;;;2.75;2.15;;;;;;;10.52;29.76;101474.03;5068286;28;20048;-68
2022/04/03 10:02:18;;;;;;;7.10;2.60;;;;;;;10.40;31.56;101477.13;5068112;28;20500;-68
2022/04/03 10:04:46;;;;;;;3.25;2.22;;;;;;;11.14;30.77;101473.22;5069395;28;20045;-68
2022/04/03 10:07:13;;;;;;;3.08;2.13;;;;;;;11.65;31.42;101470.09;5068991;28;20110;-68
2022/04/03 10:09:45;;;;;;;3.35;2.20;;;;;;;11.65;30.06;101473.59;5068286;28;20051;-68
2022/04/03 10:12:15;;;;;;;4.20;2.03;;;;;;;10.98;32.88;101475.63;5067187;28;20040;-68
2022/04/03 10:14:43;;;;;;;5.55;2.10;;;;;;;10.16;33.32;101484.16;5059198;28;20532;-68
2022/04/03 10:17:10;;;;;;;6.35;1.80;;;;;;;9.77;33.33;101476.00;5068014;28;20075;-69
2022/04/03 10:19:36;;;;;;;4.28;1.75;;;;;;;9.43;32.90;101470.28;5068104;28;20064;-68
2022/04/03 10:22:06;;;;;;;4.00;1.85;;;;;;;10.10;35.67;101473.03;5067481;28;20064;-68
2022/04/03 10:24:36;;;;;;;6.15;2.00;;;;;;;11.71;32.55;101448.88;5067730;28;20040;-68
2022/04/03 10:27:07;;;;;;;3.92;1.70;;;;;;;11.76;30.74;101453.88;5069738;28;20047;-68
2022/04/03 10:29:37;;;;;;;3.03;1.83;;;;;;;10.95;32.40;101446.91;5069271;28;20185;-69
2022/04/03 10:32:06;;;;;;;3.78;1.85;;;;;;;10.57;33.34;101451.09;5068275;28;20102;-68
2022/04/03 10:34:45;;;;;;;5.75;2.10;;;;;;;9.34;35.33;101451.44;5066765;28;20608;-68
2022/04/03 10:37:23;;;;;;;6.75;2.28;;;;;;;9.28;35.41;101455.09;5068524;28;20044;-68
2022/04/03 10:39:52;;;;;;;3.95;1.85;;;;;;;10.78;36.13;101449.38;5059165;28;20049;-68
2022/04/03 10:42:25;;;;;;;6.00;2.47;;;;;;;11.31;34.63;101438.38;5068493;28;20500;-68
2022/04/03 10:45:25;;;;;;;6.03;2.40;;;;;;;11.59;37.87;101441.50;5069587;28;20049;-68
2022/04/03 10:48:30;;;;;;;4.95;2.70;;;;;;;10.90;36.06;101427.03;5056751;28;20606;-68
2022/04/03 10:50:59;;;;;;;4.50;2.33;;;;;;;11.21;32.68;101432.66;5064561;28;20071;-68
2022/04/03 10:53:28;;;;;;;4.78;2.40;;;;;;;11.06;35.08;101435.94;5073539;28;20085;-68
2022/04/03 10:55:58;;;;;;;5.53;2.10;;;;;;;11.35;34.52;101432.91;5089421;28;20131;-68
2022/04/03 10:58:24;;;;;;;3.25;2.00;;;;;;;11.39;32.50;101423.97;5080335;28;20480;-68
2022/04/03 11:00:52;;;;;;;3.80;2.03;;;;;;;11.37;30.79;101420.59;5068019;28;20076;-68
2022/04/03 11:03:35;;;;;;;5.05;2.50;;;;;;;11.75;35.32;101418.88;5068056;28;20037;-68
2022/04/03 11:06:23;;;;;;;3.50;2.30;;;;;;;12.00;33.71;101411.59;5068750;28;20040;-68
2022/04/03 11:09:05;;;;;;;6.13;2.38;;;;;;;12.13;33.62;101411.84;5068443;28;20044;-68
2022/04/03 11:11:36;;;;;;;4.47;2.47;;;;;;;12.01;31.15;101418.53;5068439;28;20062;-68
2022/04/03 11:14:02;;;;;;;4.88;2.67;;;;;;;11.36;33.16;101407.50;5068671;28;20044;-68
2022/04/03 11:16:29;;;;;;;5.88;2.42;;;;;;;10.39;34.32;101411.66;5065995;28;20409;-68
2022/04/03 11:19:04;;;;;;;6.32;2.63;;;;;;;11.16;34.62;101403.97;5068374;28;20064;-68
2022/04/03 11:21:34;;;;;;;4.78;2.70;;;;;;;11.53;32.70;101395.31;5068225;28;20043;-68
2022/04/03 11:24:03;;;;;;;7.63;2.85;;;;;;;11.59;34.69;101395.06;5068616;28;20040;-68
2022/04/03 11:26:30;;;;;;;5.07;2.58;;;;;;;11.64;34.93;101403.56;5068130;28;20443;-68
2022/04/03 11:28:57;;;;;;;7.72;3.13;;;;;;;11.08;33.78;101389.50;5067886;28;20052;-68